sensor_id;sensor_type;location;lat;lon;timestamp;temperature;humidity
21092;DHT22;10704;42.678;23.288;2023-12-14T00:02:09;5.60;99.90
21092;DHT22;10704;42.678;23.288;2023-12-14T00:04:35;5.60;99.90
21092;DHT22;10704;42.678;23.288;2023-12-14T00:07:01;5.60;99.90
21092;DHT22;10704;42.678;23.288;2023-12-14T00:09:26;5.60;99.90
21092;DHT22;10704;42.678;23.288;2023-12-14T00:11:52;5.70;99.90
21092;DHT22;10704;42.678;23.288;2023-12-14T00:14:18;5.60;99.90
21092;DHT22;10704;42.678;23.288;2023-12-14T00:16:45;5.70;99.90
21092;DHT22;10704;42.678;23.288;2023-12-14T00:19:11;5.70;99.90
21092;DHT22;10704;42.678;23.288;2023-12-14T00:21:36;5.60;99.90
21092;DHT22;10704;42.678;23.288;2023-12-14T00:24:02;5.60;99.90
21092;DHT22;10704;42.678;23.288;2023-12-14T00:26:28;5.60;99.90
21092;DHT22;10704;42.678;23.288;2023-12-14T00:28:54;5.60;99.90
21092;DHT22;10704;42.678;23.288;2023-12-14T00:31:20;5.50;99.90
21092;DHT22;10704;42.678;23.288;2023-12-14T00:33:46;5.60;99.90
21092;DHT22;10704;42.678;23.288;2023-12-14T00:36:19;5.70;99.90
21092;DHT22;10704;42.678;23.288;2023-12-14T00:38:45;5.60;99.90
21092;DHT22;10704;42.678;23.288;2023-12-14T00:41:12;5.60;99.90
21092;DHT22;10704;42.678;23.288;2023-12-14T00:43:38;5.60;99.90
21092;DHT22;10704;42.678;23.288;2023-12-14T00:46:04;5.50;99.90
21092;DHT22;10704;42.678;23.288;2023-12-14T00:48:30;5.40;99.90
21092;DHT22;10704;42.678;23.288;2023-12-14T00:50:56;5.40;99.90
21092;DHT22;10704;42.678;23.288;2023-12-14T00:53:22;5.30;99.90
21092;DHT22;10704;42.678;23.288;2023-12-14T00:55:47;5.50;99.90
21092;DHT22;10704;42.678;23.288;2023-12-14T00:58:13;5.50;99.90
21092;DHT22;10704;42.678;23.288;2023-12-14T01:00:39;5.50;99.90
21092;DHT22;10704;42.678;23.288;2023-12-14T01:03:05;5.40;99.90
21092;DHT22;10704;42.678;23.288;2023-12-14T01:05:31;5.30;99.90
21092;DHT22;10704;42.678;23.288;2023-12-14T01:07:57;5.30;99.90
21092;DHT22;10704;42.678;23.288;2023-12-14T01:10:23;5.30;99.90
21092;DHT22;10704;42.678;23.288;2023-12-14T01:12:49;5.20;99.90
21092;DHT22;10704;42.678;23.288;2023-12-14T01:15:15;5.30;99.90
21092;DHT22;10704;42.678;23.288;2023-12-14T01:17:41;5.40;99.90
21092;DHT22;10704;42.678;23.288;2023-12-14T01:20:08;5.30;99.90
21092;DHT22;10704;42.678;23.288;2023-12-14T01:22:34;5.30;99.90
21092;DHT22;10704;42.678;23.288;2023-12-14T01:25:00;5.30;99.90
21092;DHT22;10704;42.678;23.288;2023-12-14T01:27:26;5.00;99.90
21092;DHT22;10704;42.678;23.288;2023-12-14T01:29:52;5.00;99.90
21092;DHT22;10704;42.678;23.288;2023-12-14T01:32:18;5.10;99.90
21092;DHT22;10704;42.678;23.288;2023-12-14T01:34:44;5.10;99.90
21092;DHT22;10704;42.678;23.288;2023-12-14T01:37:10;5.10;99.90
21092;DHT22;10704;42.678;23.288;2023-12-14T01:39:36;5.20;99.90
21092;DHT22;10704;42.678;23.288;2023-12-14T01:42:02;5.30;99.90
21092;DHT22;10704;42.678;23.288;2023-12-14T01:44:28;5.30;99.90
21092;DHT22;10704;42.678;23.288;2023-12-14T01:46:54;5.20;99.90
21092;DHT22;10704;42.678;23.288;2023-12-14T01:49:20;5.10;99.90
21092;DHT22;10704;42.678;23.288;2023-12-14T01:51:47;5.20;99.90
21092;DHT22;10704;42.678;23.288;2023-12-14T01:54:13;5.20;99.90
21092;DHT22;10704;42.678;23.288;2023-12-14T01:56:38;5.20;99.90
21092;DHT22;10704;42.678;23.288;2023-12-14T01:59:06;5.10;99.90
21092;DHT22;10704;42.678;23.288;2023-12-14T02:01:58;5.10;99.90
21092;DHT22;10704;42.678;23.288;2023-12-14T02:04:25;5.30;99.90
21092;DHT22;10704;42.678;23.288;2023-12-14T02:06:51;5.40;99.90
21092;DHT22;10704;42.678;23.288;2023-12-14T02:09:17;5.50;99.90
21092;DHT22;10704;42.678;23.288;2023-12-14T02:11:43;5.50;99.90
21092;DHT22;10704;42.678;23.288;2023-12-14T02:14:10;5.50;99.90
21092;DHT22;10704;42.678;23.288;2023-12-14T02:16:37;5.40;99.90
21092;DHT22;10704;42.678;23.288;2023-12-14T02:19:04;5.60;99.90
21092;DHT22;10704;42.678;23.288;2023-12-14T02:21:31;5.50;99.90
21092;DHT22;10704;42.678;23.288;2023-12-14T02:23:57;5.50;99.90
21092;DHT22;10704;42.678;23.288;2023-12-14T02:26:23;5.50;99.90
21092;DHT22;10704;42.678;23.288;2023-12-14T02:28:49;5.40;99.90
21092;DHT22;10704;42.678;23.288;2023-12-14T02:31:15;5.50;99.90
21092;DHT22;10704;42.678;23.288;2023-12-14T02:33:41;5.60;99.90
21092;DHT22;10704;42.678;23.288;2023-12-14T02:36:07;5.50;99.90
21092;DHT22;10704;42.678;23.288;2023-12-14T02:38:33;5.40;99.90
21092;DHT22;10704;42.678;23.288;2023-12-14T02:40:59;5.40;99.90
21092;DHT22;10704;42.678;23.288;2023-12-14T02:43:25;5.50;99.90
21092;DHT22;10704;42.678;23.288;2023-12-14T02:45:51;5.50;99.90
21092;DHT22;10704;42.678;23.288;2023-12-14T02:48:17;5.40;99.90
21092;DHT22;10704;42.678;23.288;2023-12-14T02:50:43;5.50;99.90
21092;DHT22;10704;42.678;23.288;2023-12-14T02:53:09;5.40;99.90
21092;DHT22;10704;42.678;23.288;2023-12-14T02:55:35;5.40;99.90
21092;DHT22;10704;42.678;23.288;2023-12-14T02:58:03;5.50;99.90
21092;DHT22;10704;42.678;23.288;2023-12-14T03:00:29;5.60;99.90
21092;DHT22;10704;42.678;23.288;2023-12-14T03:02:55;5.80;99.90
21092;DHT22;10704;42.678;23.288;2023-12-14T03:05:21;5.90;99.90
21092;DHT22;10704;42.678;23.288;2023-12-14T03:07:47;5.90;99.90
21092;DHT22;10704;42.678;23.288;2023-12-14T03:10:13;6.10;99.90
21092;DHT22;10704;42.678;23.288;2023-12-14T03:12:39;6.10;99.90
21092;DHT22;10704;42.678;23.288;2023-12-14T03:15:05;6.00;99.90
21092;DHT22;10704;42.678;23.288;2023-12-14T03:17:31;6.00;99.90
21092;DHT22;10704;42.678;23.288;2023-12-14T03:19:57;6.00;99.90
21092;DHT22;10704;42.678;23.288;2023-12-14T03:22:23;6.00;99.90
21092;DHT22;10704;42.678;23.288;2023-12-14T03:24:49;6.00;99.90
21092;DHT22;10704;42.678;23.288;2023-12-14T03:27:15;6.10;99.90
21092;DHT22;10704;42.678;23.288;2023-12-14T03:29:40;6.20;99.90
21092;DHT22;10704;42.678;23.288;2023-12-14T03:32:06;6.20;99.90
21092;DHT22;10704;42.678;23.288;2023-12-14T03:34:32;6.10;99.90
21092;DHT22;10704;42.678;23.288;2023-12-14T03:36:58;6.10;99.90
21092;DHT22;10704;42.678;23.288;2023-12-14T03:39:24;6.00;99.90
21092;DHT22;10704;42.678;23.288;2023-12-14T03:41:50;5.90;99.90
21092;DHT22;10704;42.678;23.288;2023-12-14T03:44:16;5.90;99.90
21092;DHT22;10704;42.678;23.288;2023-12-14T03:46:42;6.10;99.90
21092;DHT22;10704;42.678;23.288;2023-12-14T03:49:08;6.00;99.90
21092;DHT22;10704;42.678;23.288;2023-12-14T03:51:34;6.00;99.90
21092;DHT22;10704;42.678;23.288;2023-12-14T03:54:00;5.90;99.90
21092;DHT22;10704;42.678;23.288;2023-12-14T03:56:26;5.80;99.90
21092;DHT22;10704;42.678;23.288;2023-12-14T03:58:52;5.70;99.90
21092;DHT22;10704;42.678;23.288;2023-12-14T04:01:19;5.80;99.90
21092;DHT22;10704;42.678;23.288;2023-12-14T04:03:47;5.70;99.90
21092;DHT22;10704;42.678;23.288;2023-12-14T04:06:14;5.80;99.90
21092;DHT22;10704;42.678;23.288;2023-12-14T04:08:40;6.00;99.90
21092;DHT22;10704;42.678;23.288;2023-12-14T04:11:07;5.90;99.90
21092;DHT22;10704;42.678;23.288;2023-12-14T04:13:33;5.90;99.90
21092;DHT22;10704;42.678;23.288;2023-12-14T04:16:00;5.80;99.90
21092;DHT22;10704;42.678;23.288;2023-12-14T04:18:26;5.80;99.90
21092;DHT22;10704;42.678;23.288;2023-12-14T04:20:52;5.80;99.90
21092;DHT22;10704;42.678;23.288;2023-12-14T04:23:18;5.90;99.90
21092;DHT22;10704;42.678;23.288;2023-12-14T04:25:44;6.10;99.90
21092;DHT22;10704;42.678;23.288;2023-12-14T04:28:10;6.10;99.90
21092;DHT22;10704;42.678;23.288;2023-12-14T04:30:36;6.20;99.90
21092;DHT22;10704;42.678;23.288;2023-12-14T04:33:02;6.30;99.90
21092;DHT22;10704;42.678;23.288;2023-12-14T04:35:28;6.40;99.90
21092;DHT22;10704;42.678;23.288;2023-12-14T04:37:54;6.40;99.90
21092;DHT22;10704;42.678;23.288;2023-12-14T04:40:20;6.40;99.90
21092;DHT22;10704;42.678;23.288;2023-12-14T04:42:46;6.40;99.90
21092;DHT22;10704;42.678;23.288;2023-12-14T04:45:12;6.20;99.90
21092;DHT22;10704;42.678;23.288;2023-12-14T04:47:38;6.10;99.90
21092;DHT22;10704;42.678;23.288;2023-12-14T04:50:05;6.00;99.90
21092;DHT22;10704;42.678;23.288;2023-12-14T04:52:31;6.00;99.90
21092;DHT22;10704;42.678;23.288;2023-12-14T04:54:58;6.00;99.90
21092;DHT22;10704;42.678;23.288;2023-12-14T04:57:24;6.10;99.90
21092;DHT22;10704;42.678;23.288;2023-12-14T04:59:50;6.20;99.90
21092;DHT22;10704;42.678;23.288;2023-12-14T05:02:16;6.10;99.90
21092;DHT22;10704;42.678;23.288;2023-12-14T05:04:42;6.10;99.90
21092;DHT22;10704;42.678;23.288;2023-12-14T05:07:08;6.00;99.90
21092;DHT22;10704;42.678;23.288;2023-12-14T05:09:34;5.90;99.90
21092;DHT22;10704;42.678;23.288;2023-12-14T05:12:00;5.90;99.90
21092;DHT22;10704;42.678;23.288;2023-12-14T05:14:26;5.80;99.90
21092;DHT22;10704;42.678;23.288;2023-12-14T05:16:54;5.80;99.90
21092;DHT22;10704;42.678;23.288;2023-12-14T05:23:08;5.90;99.90
21092;DHT22;10704;42.678;23.288;2023-12-14T05:25:34;5.90;99.90
21092;DHT22;10704;42.678;23.288;2023-12-14T05:28:03;5.90;99.90
21092;DHT22;10704;42.678;23.288;2023-12-14T05:30:29;6.00;99.90
21092;DHT22;10704;42.678;23.288;2023-12-14T05:32:55;6.00;99.90
21092;DHT22;10704;42.678;23.288;2023-12-14T05:35:21;5.90;99.90
21092;DHT22;10704;42.678;23.288;2023-12-14T05:37:48;5.90;99.90
21092;DHT22;10704;42.678;23.288;2023-12-14T05:40:14;6.00;99.90
21092;DHT22;10704;42.678;23.288;2023-12-14T05:42:40;5.90;99.90
21092;DHT22;10704;42.678;23.288;2023-12-14T05:45:06;6.00;99.90
21092;DHT22;10704;42.678;23.288;2023-12-14T05:47:32;6.10;99.90
21092;DHT22;10704;42.678;23.288;2023-12-14T05:50:00;5.90;99.90
21092;DHT22;10704;42.678;23.288;2023-12-14T05:52:27;5.80;99.90
21092;DHT22;10704;42.678;23.288;2023-12-14T05:54:53;5.80;99.90
21092;DHT22;10704;42.678;23.288;2023-12-14T05:57:19;5.80;99.90
21092;DHT22;10704;42.678;23.288;2023-12-14T05:59:45;5.90;99.90
21092;DHT22;10704;42.678;23.288;2023-12-14T06:02:11;5.90;99.90
21092;DHT22;10704;42.678;23.288;2023-12-14T06:04:37;5.90;99.90
21092;DHT22;10704;42.678;23.288;2023-12-14T06:07:03;6.00;99.90
21092;DHT22;10704;42.678;23.288;2023-12-14T06:09:29;5.90;99.90
21092;DHT22;10704;42.678;23.288;2023-12-14T06:12:03;6.00;99.90
21092;DHT22;10704;42.678;23.288;2023-12-14T06:14:30;6.00;99.90
21092;DHT22;10704;42.678;23.288;2023-12-14T06:16:56;6.10;99.90
21092;DHT22;10704;42.678;23.288;2023-12-14T06:19:22;6.10;99.90
21092;DHT22;10704;42.678;23.288;2023-12-14T06:21:48;6.10;99.90
21092;DHT22;10704;42.678;23.288;2023-12-14T06:26:59;6.40;99.90
21092;DHT22;10704;42.678;23.288;2023-12-14T06:29:25;6.30;99.90
21092;DHT22;10704;42.678;23.288;2023-12-14T06:31:51;6.30;99.90
21092;DHT22;10704;42.678;23.288;2023-12-14T06:34:18;6.30;99.90
21092;DHT22;10704;42.678;23.288;2023-12-14T06:36:47;6.20;99.90
21092;DHT22;10704;42.678;23.288;2023-12-14T06:39:13;6.50;99.90
21092;DHT22;10704;42.678;23.288;2023-12-14T06:41:39;6.80;99.90
21092;DHT22;10704;42.678;23.288;2023-12-14T06:44:05;6.90;99.90
21092;DHT22;10704;42.678;23.288;2023-12-14T06:46:31;7.10;99.90
21092;DHT22;10704;42.678;23.288;2023-12-14T06:48:57;7.10;99.90
21092;DHT22;10704;42.678;23.288;2023-12-14T06:51:23;7.20;99.90
21092;DHT22;10704;42.678;23.288;2023-12-14T06:53:49;7.10;99.90
21092;DHT22;10704;42.678;23.288;2023-12-14T06:56:15;7.20;99.90
21092;DHT22;10704;42.678;23.288;2023-12-14T06:58:42;7.30;99.90
21092;DHT22;10704;42.678;23.288;2023-12-14T07:01:13;7.30;99.90
21092;DHT22;10704;42.678;23.288;2023-12-14T07:03:40;7.20;99.90
21092;DHT22;10704;42.678;23.288;2023-12-14T07:06:11;7.30;99.90
21092;DHT22;10704;42.678;23.288;2023-12-14T07:08:39;7.40;99.90
21092;DHT22;10704;42.678;23.288;2023-12-14T07:11:05;7.50;99.90
21092;DHT22;10704;42.678;23.288;2023-12-14T07:13:31;7.60;99.90
21092;DHT22;10704;42.678;23.288;2023-12-14T07:15:57;7.70;99.90
21092;DHT22;10704;42.678;23.288;2023-12-14T07:18:22;7.80;99.90
21092;DHT22;10704;42.678;23.288;2023-12-14T07:20:48;7.90;99.90
21092;DHT22;10704;42.678;23.288;2023-12-14T07:23:14;8.00;99.90
21092;DHT22;10704;42.678;23.288;2023-12-14T07:25:40;8.00;99.90
21092;DHT22;10704;42.678;23.288;2023-12-14T07:28:06;8.10;99.90
21092;DHT22;10704;42.678;23.288;2023-12-14T07:30:32;8.20;99.90
21092;DHT22;10704;42.678;23.288;2023-12-14T07:32:58;8.30;99.90
21092;DHT22;10704;42.678;23.288;2023-12-14T07:35:24;8.30;99.90
21092;DHT22;10704;42.678;23.288;2023-12-14T07:37:50;8.40;99.90
21092;DHT22;10704;42.678;23.288;2023-12-14T07:40:16;8.50;99.90
21092;DHT22;10704;42.678;23.288;2023-12-14T07:42:42;8.80;99.90
21092;DHT22;10704;42.678;23.288;2023-12-14T07:45:08;8.80;99.90
21092;DHT22;10704;42.678;23.288;2023-12-14T07:47:35;9.00;99.90
21092;DHT22;10704;42.678;23.288;2023-12-14T07:50:01;9.00;99.90
21092;DHT22;10704;42.678;23.288;2023-12-14T07:52:27;9.00;99.90
21092;DHT22;10704;42.678;23.288;2023-12-14T07:54:53;9.00;99.90
21092;DHT22;10704;42.678;23.288;2023-12-14T07:57:19;9.20;99.90
21092;DHT22;10704;42.678;23.288;2023-12-14T07:59:45;9.10;99.90
21092;DHT22;10704;42.678;23.288;2023-12-14T08:02:12;9.00;99.90
21092;DHT22;10704;42.678;23.288;2023-12-14T08:04:38;9.20;99.90
21092;DHT22;10704;42.678;23.288;2023-12-14T08:07:04;9.60;99.90
21092;DHT22;10704;42.678;23.288;2023-12-14T08:09:30;10.00;99.90
21092;DHT22;10704;42.678;23.288;2023-12-14T08:11:56;10.40;99.90
21092;DHT22;10704;42.678;23.288;2023-12-14T08:14:22;10.90;99.90
21092;DHT22;10704;42.678;23.288;2023-12-14T08:16:48;10.90;99.90
21092;DHT22;10704;42.678;23.288;2023-12-14T08:19:14;10.60;99.90
21092;DHT22;10704;42.678;23.288;2023-12-14T08:21:40;10.40;99.90
21092;DHT22;10704;42.678;23.288;2023-12-14T08:24:06;10.20;99.90
21092;DHT22;10704;42.678;23.288;2023-12-14T08:26:33;10.30;99.90
21092;DHT22;10704;42.678;23.288;2023-12-14T08:28:59;10.40;99.90
21092;DHT22;10704;42.678;23.288;2023-12-14T08:31:25;10.40;99.90
21092;DHT22;10704;42.678;23.288;2023-12-14T08:33:52;10.50;99.90
21092;DHT22;10704;42.678;23.288;2023-12-14T08:36:18;10.50;99.90
21092;DHT22;10704;42.678;23.288;2023-12-14T08:38:44;10.50;99.90
21092;DHT22;10704;42.678;23.288;2023-12-14T08:41:16;10.60;99.90
21092;DHT22;10704;42.678;23.288;2023-12-14T08:43:42;10.90;99.90
21092;DHT22;10704;42.678;23.288;2023-12-14T08:46:08;11.00;99.90
21092;DHT22;10704;42.678;23.288;2023-12-14T08:48:35;11.00;99.90
21092;DHT22;10704;42.678;23.288;2023-12-14T08:51:02;10.90;99.90
21092;DHT22;10704;42.678;23.288;2023-12-14T08:53:28;11.10;99.90
21092;DHT22;10704;42.678;23.288;2023-12-14T08:55:55;11.20;99.90
21092;DHT22;10704;42.678;23.288;2023-12-14T08:58:41;11.40;99.90
21092;DHT22;10704;42.678;23.288;2023-12-14T09:01:07;11.50;99.90
21092;DHT22;10704;42.678;23.288;2023-12-14T09:03:32;11.70;99.90
21092;DHT22;10704;42.678;23.288;2023-12-14T09:05:58;11.80;99.90
21092;DHT22;10704;42.678;23.288;2023-12-14T09:08:24;12.00;99.90
21092;DHT22;10704;42.678;23.288;2023-12-14T09:10:50;11.90;99.90
21092;DHT22;10704;42.678;23.288;2023-12-14T09:13:16;12.10;99.90
21092;DHT22;10704;42.678;23.288;2023-12-14T09:15:42;12.20;99.90
21092;DHT22;10704;42.678;23.288;2023-12-14T09:18:08;11.90;99.90
21092;DHT22;10704;42.678;23.288;2023-12-14T09:20:34;12.00;99.90
21092;DHT22;10704;42.678;23.288;2023-12-14T09:23:03;12.00;99.90
21092;DHT22;10704;42.678;23.288;2023-12-14T09:25:29;11.90;99.90
21092;DHT22;10704;42.678;23.288;2023-12-14T09:28:13;11.80;99.90
21092;DHT22;10704;42.678;23.288;2023-12-14T09:30:39;11.70;99.90
21092;DHT22;10704;42.678;23.288;2023-12-14T09:33:05;12.00;99.90
21092;DHT22;10704;42.678;23.288;2023-12-14T09:35:34;12.20;99.90
21092;DHT22;10704;42.678;23.288;2023-12-14T09:38:03;12.10;99.90
21092;DHT22;10704;42.678;23.288;2023-12-14T09:40:29;12.40;99.90
21092;DHT22;10704;42.678;23.288;2023-12-14T09:42:55;12.60;99.90
21092;DHT22;10704;42.678;23.288;2023-12-14T09:45:27;12.80;99.90
21092;DHT22;10704;42.678;23.288;2023-12-14T09:47:53;13.00;99.90
21092;DHT22;10704;42.678;23.288;2023-12-14T09:50:20;13.00;99.90
21092;DHT22;10704;42.678;23.288;2023-12-14T09:52:47;12.90;99.90
21092;DHT22;10704;42.678;23.288;2023-12-14T09:55:15;12.90;99.90
21092;DHT22;10704;42.678;23.288;2023-12-14T09:57:42;12.90;99.90
21092;DHT22;10704;42.678;23.288;2023-12-14T10:00:08;12.90;99.90
21092;DHT22;10704;42.678;23.288;2023-12-14T10:02:40;12.90;99.90
21092;DHT22;10704;42.678;23.288;2023-12-14T10:05:09;13.00;99.90
21092;DHT22;10704;42.678;23.288;2023-12-14T10:07:42;13.00;99.90
21092;DHT22;10704;42.678;23.288;2023-12-14T10:10:12;12.90;99.90
21092;DHT22;10704;42.678;23.288;2023-12-14T10:12:53;12.70;99.90
21092;DHT22;10704;42.678;23.288;2023-12-14T10:15:19;12.60;99.90
21092;DHT22;10704;42.678;23.288;2023-12-14T10:17:45;12.50;99.90
21092;DHT22;10704;42.678;23.288;2023-12-14T10:20:22;12.50;99.90
21092;DHT22;10704;42.678;23.288;2023-12-14T10:22:49;12.70;99.90
21092;DHT22;10704;42.678;23.288;2023-12-14T10:25:17;12.70;99.90
21092;DHT22;10704;42.678;23.288;2023-12-14T10:27:46;12.50;99.90
21092;DHT22;10704;42.678;23.288;2023-12-14T10:30:13;12.40;99.90
21092;DHT22;10704;42.678;23.288;2023-12-14T10:32:41;12.30;99.90
21092;DHT22;10704;42.678;23.288;2023-12-14T10:35:07;12.20;99.90
21092;DHT22;10704;42.678;23.288;2023-12-14T10:37:37;12.10;99.90
21092;DHT22;10704;42.678;23.288;2023-12-14T10:40:09;12.10;99.90
21092;DHT22;10704;42.678;23.288;2023-12-14T10:42:36;12.00;99.90
21092;DHT22;10704;42.678;23.288;2023-12-14T10:45:03;12.00;99.90
21092;DHT22;10704;42.678;23.288;2023-12-14T10:47:30;11.90;99.90
21092;DHT22;10704;42.678;23.288;2023-12-14T10:49:58;11.80;99.90
21092;DHT22;10704;42.678;23.288;2023-12-14T10:52:25;11.70;99.90
21092;DHT22;10704;42.678;23.288;2023-12-14T10:54:56;11.60;99.90
21092;DHT22;10704;42.678;23.288;2023-12-14T10:57:24;11.60;99.90
21092;DHT22;10704;42.678;23.288;2023-12-14T10:59:59;11.50;99.90
21092;DHT22;10704;42.678;23.288;2023-12-14T11:02:25;11.40;99.90
21092;DHT22;10704;42.678;23.288;2023-12-14T11:05:01;11.30;99.90
21092;DHT22;10704;42.678;23.288;2023-12-14T11:10:12;10.70;99.90
21092;DHT22;10704;42.678;23.288;2023-12-14T11:12:50;10.60;99.90
21092;DHT22;10704;42.678;23.288;2023-12-14T11:15:21;10.50;99.90
21092;DHT22;10704;42.678;23.288;2023-12-14T11:23:30;10.20;99.90
21092;DHT22;10704;42.678;23.288;2023-12-14T11:26:09;10.00;99.90
21092;DHT22;10704;42.678;23.288;2023-12-14T11:28:37;9.90;99.90
21092;DHT22;10704;42.678;23.288;2023-12-14T11:31:04;9.80;99.90
21092;DHT22;10704;42.678;23.288;2023-12-14T11:33:33;9.80;99.90
21092;DHT22;10704;42.678;23.288;2023-12-14T11:36:01;9.80;99.90
21092;DHT22;10704;42.678;23.288;2023-12-14T11:38:27;9.80;99.90
21092;DHT22;10704;42.678;23.288;2023-12-14T11:40:53;9.70;99.90
21092;DHT22;10704;42.678;23.288;2023-12-14T11:43:19;9.60;99.90
21092;DHT22;10704;42.678;23.288;2023-12-14T11:45:49;9.50;99.90
21092;DHT22;10704;42.678;23.288;2023-12-14T11:48:15;9.40;99.90
21092;DHT22;10704;42.678;23.288;2023-12-14T11:50:43;9.50;99.90
21092;DHT22;10704;42.678;23.288;2023-12-14T11:53:09;9.50;99.90
21092;DHT22;10704;42.678;23.288;2023-12-14T11:55:37;9.40;99.90
21092;DHT22;10704;42.678;23.288;2023-12-14T11:58:04;9.30;99.90
21092;DHT22;10704;42.678;23.288;2023-12-14T12:00:31;9.30;99.90
21092;DHT22;10704;42.678;23.288;2023-12-14T12:03:20;9.20;99.90
21092;DHT22;10704;42.678;23.288;2023-12-14T12:05:47;9.10;99.90
21092;DHT22;10704;42.678;23.288;2023-12-14T12:08:15;9.00;99.90
21092;DHT22;10704;42.678;23.288;2023-12-14T12:10:42;9.10;99.90
21092;DHT22;10704;42.678;23.288;2023-12-14T12:13:35;9.20;99.90
21092;DHT22;10704;42.678;23.288;2023-12-14T12:16:01;9.00;99.90
21092;DHT22;10704;42.678;23.288;2023-12-14T12:18:27;8.80;99.90
21092;DHT22;10704;42.678;23.288;2023-12-14T12:20:53;8.70;99.90
21092;DHT22;10704;42.678;23.288;2023-12-14T12:23:19;8.70;99.90
21092;DHT22;10704;42.678;23.288;2023-12-14T12:25:45;8.80;99.90
21092;DHT22;10704;42.678;23.288;2023-12-14T12:28:11;8.70;99.90
21092;DHT22;10704;42.678;23.288;2023-12-14T12:30:37;8.70;99.90
21092;DHT22;10704;42.678;23.288;2023-12-14T12:33:03;8.70;99.90
21092;DHT22;10704;42.678;23.288;2023-12-14T12:35:29;8.80;99.90
21092;DHT22;10704;42.678;23.288;2023-12-14T12:37:56;8.70;99.90
21092;DHT22;10704;42.678;23.288;2023-12-14T12:40:23;8.60;99.90
21092;DHT22;10704;42.678;23.288;2023-12-14T12:42:51;8.60;99.90
21092;DHT22;10704;42.678;23.288;2023-12-14T12:45:18;8.50;99.90
21092;DHT22;10704;42.678;23.288;2023-12-14T12:47:45;8.50;99.90
21092;DHT22;10704;42.678;23.288;2023-12-14T12:50:12;8.40;99.90
21092;DHT22;10704;42.678;23.288;2023-12-14T12:52:38;8.40;99.90
21092;DHT22;10704;42.678;23.288;2023-12-14T12:55:06;8.40;99.90
21092;DHT22;10704;42.678;23.288;2023-12-14T12:57:33;8.50;99.90
21092;DHT22;10704;42.678;23.288;2023-12-14T12:59:59;8.30;99.90
21092;DHT22;10704;42.678;23.288;2023-12-14T13:02:25;8.30;99.90
21092;DHT22;10704;42.678;23.288;2023-12-14T13:04:51;8.20;99.90
21092;DHT22;10704;42.678;23.288;2023-12-14T13:07:17;8.30;99.90
21092;DHT22;10704;42.678;23.288;2023-12-14T13:09:44;8.30;99.90
21092;DHT22;10704;42.678;23.288;2023-12-14T13:12:10;8.20;99.90
21092;DHT22;10704;42.678;23.288;2023-12-14T13:14:36;8.30;99.90
21092;DHT22;10704;42.678;23.288;2023-12-14T13:17:02;8.30;99.90
21092;DHT22;10704;42.678;23.288;2023-12-14T13:19:28;8.10;99.90
21092;DHT22;10704;42.678;23.288;2023-12-14T13:21:54;8.00;99.90
21092;DHT22;10704;42.678;23.288;2023-12-14T13:24:23;8.00;99.90
21092;DHT22;10704;42.678;23.288;2023-12-14T13:26:50;7.90;99.90
21092;DHT22;10704;42.678;23.288;2023-12-14T13:29:16;7.80;99.90
21092;DHT22;10704;42.678;23.288;2023-12-14T13:31:42;7.80;99.90
21092;DHT22;10704;42.678;23.288;2023-12-14T13:34:08;7.80;99.90
21092;DHT22;10704;42.678;23.288;2023-12-14T13:36:34;7.90;99.90
21092;DHT22;10704;42.678;23.288;2023-12-14T13:39:00;7.80;99.90
21092;DHT22;10704;42.678;23.288;2023-12-14T13:41:27;7.70;99.90
21092;DHT22;10704;42.678;23.288;2023-12-14T13:43:53;7.70;99.90
21092;DHT22;10704;42.678;23.288;2023-12-14T13:46:19;7.60;99.90
21092;DHT22;10704;42.678;23.288;2023-12-14T13:48:45;7.50;99.90
21092;DHT22;10704;42.678;23.288;2023-12-14T13:51:11;7.50;99.90
21092;DHT22;10704;42.678;23.288;2023-12-14T13:53:37;7.60;99.90
21092;DHT22;10704;42.678;23.288;2023-12-14T13:56:04;7.70;99.90
21092;DHT22;10704;42.678;23.288;2023-12-14T13:58:30;7.70;99.90
21092;DHT22;10704;42.678;23.288;2023-12-14T14:00:56;7.60;99.90
21092;DHT22;10704;42.678;23.288;2023-12-14T14:03:22;7.60;99.90
21092;DHT22;10704;42.678;23.288;2023-12-14T14:05:48;7.60;99.90
21092;DHT22;10704;42.678;23.288;2023-12-14T14:08:14;7.60;99.90
21092;DHT22;10704;42.678;23.288;2023-12-14T14:10:40;7.60;99.90
21092;DHT22;10704;42.678;23.288;2023-12-14T14:13:06;7.60;99.90
21092;DHT22;10704;42.678;23.288;2023-12-14T14:15:32;7.70;99.90
21092;DHT22;10704;42.678;23.288;2023-12-14T14:17:58;7.70;99.90
21092;DHT22;10704;42.678;23.288;2023-12-14T14:20:24;7.70;99.90
21092;DHT22;10704;42.678;23.288;2023-12-14T14:22:50;7.70;99.90
21092;DHT22;10704;42.678;23.288;2023-12-14T14:25:16;7.70;99.90
21092;DHT22;10704;42.678;23.288;2023-12-14T14:27:42;7.70;99.90
21092;DHT22;10704;42.678;23.288;2023-12-14T14:30:13;7.70;99.90
21092;DHT22;10704;42.678;23.288;2023-12-14T14:32:39;7.80;99.90
21092;DHT22;10704;42.678;23.288;2023-12-14T14:35:05;7.80;99.90
21092;DHT22;10704;42.678;23.288;2023-12-14T14:37:32;7.80;99.90
21092;DHT22;10704;42.678;23.288;2023-12-14T14:39:58;7.80;99.90
21092;DHT22;10704;42.678;23.288;2023-12-14T14:42:24;7.90;99.90
21092;DHT22;10704;42.678;23.288;2023-12-14T14:44:50;7.90;99.90
21092;DHT22;10704;42.678;23.288;2023-12-14T14:47:16;7.90;99.90
21092;DHT22;10704;42.678;23.288;2023-12-14T14:49:43;8.00;99.90
21092;DHT22;10704;42.678;23.288;2023-12-14T14:52:09;8.00;99.90
21092;DHT22;10704;42.678;23.288;2023-12-14T14:54:35;8.00;99.90
21092;DHT22;10704;42.678;23.288;2023-12-14T14:57:02;8.10;99.90
21092;DHT22;10704;42.678;23.288;2023-12-14T14:59:28;8.10;99.90
21092;DHT22;10704;42.678;23.288;2023-12-14T15:01:56;8.10;99.90
21092;DHT22;10704;42.678;23.288;2023-12-14T15:04:24;8.10;99.90
21092;DHT22;10704;42.678;23.288;2023-12-14T15:06:50;8.10;99.90
21092;DHT22;10704;42.678;23.288;2023-12-14T15:09:16;8.20;99.90
21092;DHT22;10704;42.678;23.288;2023-12-14T15:11:42;8.20;99.90
21092;DHT22;10704;42.678;23.288;2023-12-14T15:14:08;8.10;99.90
21092;DHT22;10704;42.678;23.288;2023-12-14T15:16:34;8.10;99.90
21092;DHT22;10704;42.678;23.288;2023-12-14T15:19:01;8.00;99.90
21092;DHT22;10704;42.678;23.288;2023-12-14T15:21:27;8.00;99.90
21092;DHT22;10704;42.678;23.288;2023-12-14T15:23:53;8.10;99.90
21092;DHT22;10704;42.678;23.288;2023-12-14T15:26:19;8.10;99.90
21092;DHT22;10704;42.678;23.288;2023-12-14T15:28:45;7.90;99.90
21092;DHT22;10704;42.678;23.288;2023-12-14T15:31:11;7.90;99.90
21092;DHT22;10704;42.678;23.288;2023-12-14T15:33:37;7.90;99.90
21092;DHT22;10704;42.678;23.288;2023-12-14T15:36:03;7.90;99.90
21092;DHT22;10704;42.678;23.288;2023-12-14T15:38:30;7.90;99.90
21092;DHT22;10704;42.678;23.288;2023-12-14T15:44:22;8.00;99.90